sensor_id;sensor_type;location;lat;lon;timestamp;pressure;altitude;pressure_sealevel;temperature;humidity
10348;BME280;5220;43.192;23.284;2024-02-21T00:02:23;97684.69;;;8.57;100.00
10348;BME280;5220;43.192;23.284;2024-02-21T00:04:50;97682.41;;;8.51;100.00
10348;BME280;5220;43.192;23.284;2024-02-21T00:07:17;97683.16;;;8.53;100.00
10348;BME280;5220;43.192;23.284;2024-02-21T00:09:43;97679.41;;;8.43;100.00
10348;BME280;5220;43.192;23.284;2024-02-21T00:12:11;97682.75;;;8.61;100.00
10348;BME280;5220;43.192;23.284;2024-02-21T00:14:39;97680.91;;;8.63;100.00
10348;BME280;5220;43.192;23.284;2024-02-21T00:17:05;97680.50;;;8.55;100.00
10348;BME280;5220;43.192;23.284;2024-02-21T00:19:35;97680.22;;;8.59;100.00
10348;BME280;5220;43.192;23.284;2024-02-21T00:22:01;97676.22;;;8.54;100.00
10348;BME280;5220;43.192;23.284;2024-02-21T00:24:28;97674.47;;;8.54;100.00
10348;BME280;5220;43.192;23.284;2024-02-21T00:26:55;97672.94;;;8.50;100.00
10348;BME280;5220;43.192;23.284;2024-02-21T00:29:21;97679.63;;;8.39;100.00
10348;BME280;5220;43.192;23.284;2024-02-21T00:31:49;97672.84;;;8.36;100.00
10348;BME280;5220;43.192;23.284;2024-02-21T00:34:15;97669.94;;;8.42;100.00
10348;BME280;5220;43.192;23.284;2024-02-21T00:36:43;97665.47;;;8.29;100.00
10348;BME280;5220;43.192;23.284;2024-02-21T00:39:10;97671.59;;;8.28;100.00
10348;BME280;5220;43.192;23.284;2024-02-21T00:41:37;97669.63;;;8.48;100.00
10348;BME280;5220;43.192;23.284;2024-02-21T00:44:04;97661.97;;;8.30;100.00
10348;BME280;5220;43.192;23.284;2024-02-21T00:46:31;97662.81;;;8.30;100.00
10348;BME280;5220;43.192;23.284;2024-02-21T00:48:58;97657.91;;;8.24;100.00
10348;BME280;5220;43.192;23.284;2024-02-21T00:51:24;97651.06;;;8.23;100.00
10348;BME280;5220;43.192;23.284;2024-02-21T00:53:52;97651.53;;;8.31;100.00
10348;BME280;5220;43.192;23.284;2024-02-21T00:56:19;97646.78;;;8.22;100.00
10348;BME280;5220;43.192;23.284;2024-02-21T00:58:46;97643.28;;;8.23;100.00
10348;BME280;5220;43.192;23.284;2024-02-21T01:01:12;97645.34;;;8.17;100.00
10348;BME280;5220;43.192;23.284;2024-02-21T01:03:39;97642.13;;;8.29;100.00
10348;BME280;5220;43.192;23.284;2024-02-21T01:06:06;97641.59;;;8.39;100.00
10348;BME280;5220;43.192;23.284;2024-02-21T01:08:33;97640.31;;;8.13;100.00
10348;BME280;5220;43.192;23.284;2024-02-21T01:11:01;97638.09;;;8.40;100.00
10348;BME280;5220;43.192;23.284;2024-02-21T01:13:27;97631.78;;;8.29;100.00
10348;BME280;5220;43.192;23.284;2024-02-21T01:15:54;97629.25;;;8.27;100.00
10348;BME280;5220;43.192;23.284;2024-02-21T01:18:21;97626.78;;;8.41;100.00
10348;BME280;5220;43.192;23.284;2024-02-21T01:20:48;97626.44;;;8.47;100.00
10348;BME280;5220;43.192;23.284;2024-02-21T01:23:14;97618.94;;;8.43;100.00
10348;BME280;5220;43.192;23.284;2024-02-21T01:25:41;97627.38;;;8.46;100.00
10348;BME280;5220;43.192;23.284;2024-02-21T01:28:09;97623.69;;;8.50;100.00
10348;BME280;5220;43.192;23.284;2024-02-21T01:30:36;97622.88;;;8.50;100.00
10348;BME280;5220;43.192;23.284;2024-02-21T01:33:03;97619.34;;;8.51;100.00
10348;BME280;5220;43.192;23.284;2024-02-21T01:35:30;97615.34;;;8.61;100.00
10348;BME280;5220;43.192;23.284;2024-02-21T01:37:56;97613.41;;;8.64;100.00
10348;BME280;5220;43.192;23.284;2024-02-21T01:40:23;97621.19;;;8.49;100.00
10348;BME280;5220;43.192;23.284;2024-02-21T01:42:50;97612.81;;;8.59;100.00
10348;BME280;5220;43.192;23.284;2024-02-21T01:45:20;97613.25;;;8.52;100.00
10348;BME280;5220;43.192;23.284;2024-02-21T01:47:47;97614.81;;;8.54;100.00
10348;BME280;5220;43.192;23.284;2024-02-21T01:50:14;97607.78;;;8.56;100.00
10348;BME280;5220;43.192;23.284;2024-02-21T01:52:42;97611.22;;;8.57;100.00
10348;BME280;5220;43.192;23.284;2024-02-21T01:55:10;97605.63;;;8.64;100.00
10348;BME280;5220;43.192;23.284;2024-02-21T01:57:38;97612.00;;;8.59;100.00
10348;BME280;5220;43.192;23.284;2024-02-21T02:00:06;97605.47;;;8.52;100.00
10348;BME280;5220;43.192;23.284;2024-02-21T02:02:36;97603.94;;;8.32;100.00
10348;BME280;5220;43.192;23.284;2024-02-21T02:05:04;97605.00;;;8.28;100.00
10348;BME280;5220;43.192;23.284;2024-02-21T02:07:31;97603.31;;;8.27;100.00
10348;BME280;5220;43.192;23.284;2024-02-21T02:09:58;97601.28;;;8.34;100.00
10348;BME280;5220;43.192;23.284;2024-02-21T02:12:25;97609.56;;;8.40;100.00
10348;BME280;5220;43.192;23.284;2024-02-21T02:14:58;97596.78;;;8.37;100.00
10348;BME280;5220;43.192;23.284;2024-02-21T02:17:24;97587.16;;;8.39;100.00
10348;BME280;5220;43.192;23.284;2024-02-21T02:19:52;97594.50;;;8.31;100.00
10348;BME280;5220;43.192;23.284;2024-02-21T02:22:22;97592.06;;;8.44;100.00
10348;BME280;5220;43.192;23.284;2024-02-21T02:24:51;97586.13;;;8.42;100.00
10348;BME280;5220;43.192;23.284;2024-02-21T02:27:17;97585.81;;;8.48;100.00
10348;BME280;5220;43.192;23.284;2024-02-21T02:29:44;97583.38;;;8.60;100.00
10348;BME280;5220;43.192;23.284;2024-02-21T02:32:11;97582.38;;;8.47;100.00
10348;BME280;5220;43.192;23.284;2024-02-21T02:34:38;97586.97;;;8.58;100.00
10348;BME280;5220;43.192;23.284;2024-02-21T02:37:05;97588.72;;;8.57;100.00
10348;BME280;5220;43.192;23.284;2024-02-21T02:39:31;97590.06;;;8.64;100.00
10348;BME280;5220;43.192;23.284;2024-02-21T02:41:59;97582.63;;;8.58;100.00
10348;BME280;5220;43.192;23.284;2024-02-21T02:44:26;97590.75;;;8.68;100.00
10348;BME280;5220;43.192;23.284;2024-02-21T02:46:53;97590.06;;;8.64;100.00
10348;BME280;5220;43.192;23.284;2024-02-21T02:49:19;97594.25;;;8.67;100.00
10348;BME280;5220;43.192;23.284;2024-02-21T02:51:46;97583.81;;;8.69;100.00
10348;BME280;5220;43.192;23.284;2024-02-21T02:54:13;97597.09;;;8.62;100.00
10348;BME280;5220;43.192;23.284;2024-02-21T02:56:39;97598.53;;;8.52;100.00
10348;BME280;5220;43.192;23.284;2024-02-21T02:59:07;97597.69;;;8.52;100.00
10348;BME280;5220;43.192;23.284;2024-02-21T03:01:34;97603.63;;;8.54;100.00
10348;BME280;5220;43.192;23.284;2024-02-21T03:04:01;97600.00;;;8.56;100.00
10348;BME280;5220;43.192;23.284;2024-02-21T03:06:28;97591.66;;;8.51;100.00
10348;BME280;5220;43.192;23.284;2024-02-21T03:08:55;97596.78;;;8.53;100.00
10348;BME280;5220;43.192;23.284;2024-02-21T03:11:21;97602.53;;;8.42;100.00
10348;BME280;5220;43.192;23.284;2024-02-21T03:13:54;97601.69;;;8.42;100.00
10348;BME280;5220;43.192;23.284;2024-02-21T03:16:22;97610.31;;;8.42;100.00
10348;BME280;5220;43.192;23.284;2024-02-21T03:18:49;97605.13;;;8.42;100.00
10348;BME280;5220;43.192;23.284;2024-02-21T03:21:15;97608.44;;;8.29;100.00
10348;BME280;5220;43.192;23.284;2024-02-21T03:23:42;97608.00;;;8.21;100.00
10348;BME280;5220;43.192;23.284;2024-02-21T03:26:09;97605.00;;;8.28;100.00
10348;BME280;5220;43.192;23.284;2024-02-21T03:28:35;97607.94;;;8.38;100.00
10348;BME280;5220;43.192;23.284;2024-02-21T03:31:02;97618.16;;;8.41;100.00
10348;BME280;5220;43.192;23.284;2024-02-21T03:33:30;97621.19;;;8.16;100.00
10348;BME280;5220;43.192;23.284;2024-02-21T03:35:57;97621.75;;;8.05;100.00
10348;BME280;5220;43.192;23.284;2024-02-21T03:38:24;97620.34;;;7.83;100.00
10348;BME280;5220;43.192;23.284;2024-02-21T03:40:50;97617.75;;;7.83;100.00
10348;BME280;5220;43.192;23.284;2024-02-21T03:43:17;97617.03;;;7.64;100.00
10348;BME280;5220;43.192;23.284;2024-02-21T03:45:44;97618.09;;;7.77;100.00
10348;BME280;5220;43.192;23.284;2024-02-21T03:48:10;97618.06;;;7.94;100.00
10348;BME280;5220;43.192;23.284;2024-02-21T03:50:38;97612.09;;;7.92;100.00
10348;BME280;5220;43.192;23.284;2024-02-21T03:53:05;97614.84;;;8.06;100.00
10348;BME280;5220;43.192;23.284;2024-02-21T03:55:32;97607.09;;;7.89;100.00
10348;BME280;5220;43.192;23.284;2024-02-21T03:57:58;97616.56;;;7.73;100.00
10348;BME280;5220;43.192;23.284;2024-02-21T04:00:25;97616.28;;;7.94;100.00
10348;BME280;5220;43.192;23.284;2024-02-21T04:02:52;97613.81;;;7.76;100.00
10348;BME280;5220;43.192;23.284;2024-02-21T04:05:18;97614.47;;;7.46;100.00
10348;BME280;5220;43.192;23.284;2024-02-21T04:07:47;97612.53;;;7.67;100.00
10348;BME280;5220;43.192;23.284;2024-02-21T04:10:13;97615.66;;;7.74;100.00
10348;BME280;5220;43.192;23.284;2024-02-21T04:12:40;97614.13;;;7.87;100.00
10348;BME280;5220;43.192;23.284;2024-02-21T04:15:07;97607.38;;;8.00;100.00
10348;BME280;5220;43.192;23.284;2024-02-21T04:17:34;97611.13;;;8.10;100.00
10348;BME280;5220;43.192;23.284;2024-02-21T04:20:03;97611.56;;;8.02;100.00
10348;BME280;5220;43.192;23.284;2024-02-21T04:22:30;97612.63;;;7.98;100.00
10348;BME280;5220;43.192;23.284;2024-02-21T04:24:59;97612.06;;;8.09;100.00
10348;BME280;5220;43.192;23.284;2024-02-21T04:27:26;97612.66;;;8.14;100.00
10348;BME280;5220;43.192;23.284;2024-02-21T04:29:53;97615.41;;;8.11;100.00
10348;BME280;5220;43.192;23.284;2024-02-21T04:32:20;97617.16;;;8.10;100.00
10348;BME280;5220;43.192;23.284;2024-02-21T04:34:46;97625.97;;;8.24;100.00
10348;BME280;5220;43.192;23.284;2024-02-21T04:37:13;97615.16;;;8.00;100.00
10348;BME280;5220;43.192;23.284;2024-02-21T04:39:40;97613.84;;;8.24;100.00
10348;BME280;5220;43.192;23.284;2024-02-21T04:42:08;97615.09;;;8.34;100.00
10348;BME280;5220;43.192;23.284;2024-02-21T04:44:34;97620.59;;;8.44;100.00
10348;BME280;5220;43.192;23.284;2024-02-21T04:47:01;97618.16;;;8.41;100.00
10348;BME280;5220;43.192;23.284;2024-02-21T04:49:28;97618.50;;;8.50;100.00
10348;BME280;5220;43.192;23.284;2024-02-21T04:51:55;97621.19;;;8.49;100.00
10348;BME280;5220;43.192;23.284;2024-02-21T04:54:22;97612.06;;;8.42;100.00
10348;BME280;5220;43.192;23.284;2024-02-21T04:56:48;97616.06;;;8.32;100.00
10348;BME280;5220;43.192;23.284;2024-02-21T04:59:17;97614.88;;;8.22;100.00
10348;BME280;5220;43.192;23.284;2024-02-21T05:01:44;97618.81;;;8.29;100.00
10348;BME280;5220;43.192;23.284;2024-02-21T05:04:10;97619.44;;;8.34;100.00
10348;BME280;5220;43.192;23.284;2024-02-21T05:06:37;97614.06;;;8.37;100.00
10348;BME280;5220;43.192;23.284;2024-02-21T05:09:05;97618.59;;;8.33;100.00
10348;BME280;5220;43.192;23.284;2024-02-21T05:11:32;97618.47;;;8.35;100.00
10348;BME280;5220;43.192;23.284;2024-02-21T05:13:58;97621.34;;;8.30;100.00
10348;BME280;5220;43.192;23.284;2024-02-21T05:16:26;97622.38;;;8.26;100.00
10348;BME280;5220;43.192;23.284;2024-02-21T05:18:53;97613.09;;;8.22;100.00
10348;BME280;5220;43.192;23.284;2024-02-21T05:21:21;97621.59;;;8.08;100.00
10348;BME280;5220;43.192;23.284;2024-02-21T05:23:49;97619.53;;;8.15;100.00
10348;BME280;5220;43.192;23.284;2024-02-21T05:26:20;97616.13;;;7.97;100.00
10348;BME280;5220;43.192;23.284;2024-02-21T05:28:47;97621.88;;;7.87;100.00
10348;BME280;5220;43.192;23.284;2024-02-21T05:31:13;97618.03;;;7.78;100.00
10348;BME280;5220;43.192;23.284;2024-02-21T05:33:42;97620.34;;;7.83;100.00
10348;BME280;5220;43.192;23.284;2024-02-21T05:36:09;97628.75;;;7.71;100.00
10348;BME280;5220;43.192;23.284;2024-02-21T05:38:36;97630.44;;;7.72;100.00
10348;BME280;5220;43.192;23.284;2024-02-21T05:41:02;97631.47;;;7.85;100.00
10348;BME280;5220;43.192;23.284;2024-02-21T05:43:29;97622.25;;;7.79;100.00
10348;BME280;5220;43.192;23.284;2024-02-21T05:45:56;97629.97;;;7.81;100.00
10348;BME280;5220;43.192;23.284;2024-02-21T05:48:23;97626.38;;;7.66;100.00
10348;BME280;5220;43.192;23.284;2024-02-21T05:50:51;97635.25;;;7.62;100.00
10348;BME280;5220;43.192;23.284;2024-02-21T05:53:18;97631.19;;;7.39;100.00
10348;BME280;5220;43.192;23.284;2024-02-21T05:55:45;97640.47;;;7.61;100.00
10348;BME280;5220;43.192;23.284;2024-02-21T05:58:11;97633.84;;;7.72;100.00
10348;BME280;5220;43.192;23.284;2024-02-21T06:00:39;97630.28;;;7.75;100.00
10348;BME280;5220;43.192;23.284;2024-02-21T06:03:07;97645.88;;;7.73;100.00
10348;BME280;5220;43.192;23.284;2024-02-21T06:05:37;97652.59;;;7.77;100.00
10348;BME280;5220;43.192;23.284;2024-02-21T06:08:05;97649.69;;;7.83;100.00
10348;BME280;5220;43.192;23.284;2024-02-21T06:10:33;97646.69;;;7.91;100.00
10348;BME280;5220;43.192;23.284;2024-02-21T06:13:00;97652.72;;;7.91;100.00
10348;BME280;5220;43.192;23.284;2024-02-21T06:15:26;97662.38;;;7.88;100.00
10348;BME280;5220;43.192;23.284;2024-02-21T06:17:53;97656.09;;;7.93;100.00
10348;BME280;5220;43.192;23.284;2024-02-21T06:20:20;97658.41;;;7.98;100.00
10348;BME280;5220;43.192;23.284;2024-02-21T06:22:46;97656.28;;;8.06;100.00
10348;BME280;5220;43.192;23.284;2024-02-21T06:25:15;97662.91;;;8.11;100.00
10348;BME280;5220;43.192;23.284;2024-02-21T06:27:41;97662.06;;;8.11;100.00
10348;BME280;5220;43.192;23.284;2024-02-21T06:30:09;97658.41;;;8.15;100.00
10348;BME280;5220;43.192;23.284;2024-02-21T06:32:36;97664.84;;;8.24;100.00
10348;BME280;5220;43.192;23.284;2024-02-21T06:35:04;97666.25;;;8.31;100.00
10348;BME280;5220;43.192;23.284;2024-02-21T06:37:30;97667.25;;;8.44;100.00
10348;BME280;5220;43.192;23.284;2024-02-21T06:39:57;97671.97;;;8.53;100.00
10348;BME280;5220;43.192;23.284;2024-02-21T06:42:25;97659.75;;;8.55;100.00
10348;BME280;5220;43.192;23.284;2024-02-21T06:44:52;97662.56;;;8.50;100.00
10348;BME280;5220;43.192;23.284;2024-02-21T06:47:19;97664.25;;;8.51;100.00
10348;BME280;5220;43.192;23.284;2024-02-21T06:49:48;97662.75;;;8.47;100.00
10348;BME280;5220;43.192;23.284;2024-02-21T06:52:16;97657.72;;;8.44;100.00
10348;BME280;5220;43.192;23.284;2024-02-21T06:54:45;97653.63;;;8.40;100.00
10348;BME280;5220;43.192;23.284;2024-02-21T06:57:12;97653.88;;;8.51;100.00
10348;BME280;5220;43.192;23.284;2024-02-21T06:59:40;97653.66;;;8.56;100.00
10348;BME280;5220;43.192;23.284;2024-02-21T07:02:07;97648.78;;;8.65;100.00
10348;BME280;5220;43.192;23.284;2024-02-21T07:04:33;97654.13;;;8.78;100.00
10348;BME280;5220;43.192;23.284;2024-02-21T07:07:00;97652.88;;;8.85;100.00
10348;BME280;5220;43.192;23.284;2024-02-21T07:09:27;97655.75;;;8.96;100.00
10348;BME280;5220;43.192;23.284;2024-02-21T07:11:54;97662.00;;;9.08;100.00
10348;BME280;5220;43.192;23.284;2024-02-21T07:14:22;97659.63;;;9.19;100.00
10348;BME280;5220;43.192;23.284;2024-02-21T07:16:50;97657.72;;;9.23;100.00
10348;BME280;5220;43.192;23.284;2024-02-21T07:19:16;97653.56;;;9.34;100.00
10348;BME280;5220;43.192;23.284;2024-02-21T07:21:43;97655.69;;;9.43;100.00
10348;BME280;5220;43.192;23.284;2024-02-21T07:24:10;97658.84;;;9.48;100.00
10348;BME280;5220;43.192;23.284;2024-02-21T07:26:36;97661.81;;;9.56;100.00
10348;BME280;5220;43.192;23.284;2024-02-21T07:29:03;97669.19;;;9.64;100.00
10348;BME280;5220;43.192;23.284;2024-02-21T07:31:30;97668.47;;;9.76;100.00
10348;BME280;5220;43.192;23.284;2024-02-21T07:33:58;97665.81;;;9.92;100.00
10348;BME280;5220;43.192;23.284;2024-02-21T07:36:28;97660.72;;;10.04;100.00
10348;BME280;5220;43.192;23.284;2024-02-21T07:38:55;97659.94;;;10.18;100.00
10348;BME280;5220;43.192;23.284;2024-02-21T07:41:22;97667.25;;;10.25;100.00
10348;BME280;5220;43.192;23.284;2024-02-21T07:43:49;97667.34;;;10.38;100.00
10348;BME280;5220;43.192;23.284;2024-02-21T07:46:15;97662.16;;;10.52;100.00
10348;BME280;5220;43.192;23.284;2024-02-21T07:48:42;97658.50;;;10.69;100.00
10348;BME280;5220;43.192;23.284;2024-02-21T07:51:10;97664.13;;;10.49;100.00
10348;BME280;5220;43.192;23.284;2024-02-21T07:53:38;97666.22;;;10.56;100.00
10348;BME280;5220;43.192;23.284;2024-02-21T07:56:09;97661.66;;;10.74;100.00
10348;BME280;5220;43.192;23.284;2024-02-21T07:58:36;97664.75;;;10.93;100.00
10348;BME280;5220;43.192;23.284;2024-02-21T08:01:03;97666.78;;;11.02;100.00
10348;BME280;5220;43.192;23.284;2024-02-21T08:03:30;97666.38;;;11.22;100.00
10348;BME280;5220;43.192;23.284;2024-02-21T08:05:56;97659.22;;;11.12;96.87
10348;BME280;5220;43.192;23.284;2024-02-21T08:08:24;97660.03;;;11.26;92.19
10348;BME280;5220;43.192;23.284;2024-02-21T08:10:52;97662.88;;;11.09;92.46
10348;BME280;5220;43.192;23.284;2024-02-21T08:13:18;97658.16;;;11.02;89.95
10348;BME280;5220;43.192;23.284;2024-02-21T08:15:46;97650.75;;;11.22;94.74
10348;BME280;5220;43.192;23.284;2024-02-21T08:18:13;97660.22;;;11.50;100.00
10348;BME280;5220;43.192;23.284;2024-02-21T08:20:39;97662.56;;;11.41;90.87
10348;BME280;5220;43.192;23.284;2024-02-21T08:23:06;97661.81;;;11.26;95.27
10348;BME280;5220;43.192;23.284;2024-02-21T08:25:34;97657.72;;;11.49;92.91
10348;BME280;5220;43.192;23.284;2024-02-21T08:28:01;97657.06;;;11.45;86.68
10348;BME280;5220;43.192;23.284;2024-02-21T08:30:27;97656.59;;;11.65;80.36
10348;BME280;5220;43.192;23.284;2024-02-21T08:32:54;97647.28;;;11.88;88.31
10348;BME280;5220;43.192;23.284;2024-02-21T08:35:21;97657.19;;;12.08;89.21
10348;BME280;5220;43.192;23.284;2024-02-21T08:37:48;97650.94;;;12.23;85.25
10348;BME280;5220;43.192;23.284;2024-02-21T08:40:15;97655.13;;;12.13;83.19
10348;BME280;5220;43.192;23.284;2024-02-21T08:42:47;97648.00;;;12.28;81.31
10348;BME280;5220;43.192;23.284;2024-02-21T08:45:14;97649.25;;;12.35;85.94
10348;BME280;5220;43.192;23.284;2024-02-21T08:47:41;97650.19;;;12.21;80.93
10348;BME280;5220;43.192;23.284;2024-02-21T08:50:09;97651.75;;;12.24;73.83
10348;BME280;5220;43.192;23.284;2024-02-21T08:52:36;97651.66;;;12.51;74.47
10348;BME280;5220;43.192;23.284;2024-02-21T08:55:03;97652.59;;;12.50;72.05
10348;BME280;5220;43.192;23.284;2024-02-21T08:57:30;97652.97;;;12.69;72.61
10348;BME280;5220;43.192;23.284;2024-02-21T09:00:03;97651.88;;;12.84;73.01
10348;BME280;5220;43.192;23.284;2024-02-21T09:02:35;97644.59;;;12.76;65.45
10348;BME280;5220;43.192;23.284;2024-02-21T09:05:03;97640.84;;;12.68;70.90
10348;BME280;5220;43.192;23.284;2024-02-21T09:07:31;97653.34;;;12.88;70.68
10348;BME280;5220;43.192;23.284;2024-02-21T09:09:58;97639.41;;;13.13;67.99
10348;BME280;5220;43.192;23.284;2024-02-21T09:12:24;97631.16;;;13.30;70.39
10348;BME280;5220;43.192;23.284;2024-02-21T09:14:51;97641.66;;;13.41;65.03
10348;BME280;5220;43.192;23.284;2024-02-21T09:17:19;97642.41;;;13.07;63.81
10348;BME280;5220;43.192;23.284;2024-02-21T09:19:46;97646.69;;;13.08;64.05
10348;BME280;5220;43.192;23.284;2024-02-21T09:22:13;97642.72;;;13.38;65.45
10348;BME280;5220;43.192;23.284;2024-02-21T09:24:40;97643.69;;;13.48;61.83
10348;BME280;5220;43.192;23.284;2024-02-21T09:27:06;97637.34;;;13.29;65.30
10348;BME280;5220;43.192;23.284;2024-02-21T09:29:33;97638.06;;;12.94;59.10
10348;BME280;5220;43.192;23.284;2024-02-21T09:32:00;97647.59;;;12.83;60.92
10348;BME280;5220;43.192;23.284;2024-02-21T09:34:29;97645.28;;;12.91;60.26
10348;BME280;5220;43.192;23.284;2024-02-21T09:36:56;97650.78;;;13.12;62.26
10348;BME280;5220;43.192;23.284;2024-02-21T09:39:22;97646.06;;;13.17;63.11
10348;BME280;5220;43.192;23.284;2024-02-21T09:41:53;97643.47;;;13.04;63.17
10348;BME280;5220;43.192;23.284;2024-02-21T09:44:21;97641.72;;;13.28;61.63
10348;BME280;5220;43.192;23.284;2024-02-21T09:46:52;97642.34;;;13.32;62.65
10348;BME280;5220;43.192;23.284;2024-02-21T09:49:29;97640.94;;;13.39;63.26
10348;BME280;5220;43.192;23.284;2024-02-21T09:51:57;97644.03;;;13.20;62.02
10348;BME280;5220;43.192;23.284;2024-02-21T09:54:28;97646.78;;;12.82;64.99
10348;BME280;5220;43.192;23.284;2024-02-21T09:56:56;97651.03;;;12.83;66.15
10348;BME280;5220;43.192;23.284;2024-02-21T09:59:23;97653.84;;;12.93;63.89
10348;BME280;5220;43.192;23.284;2024-02-21T10:01:51;97642.13;;;12.99;66.68
10348;BME280;5220;43.192;23.284;2024-02-21T10:04:17;97645.09;;;13.18;74.91
10348;BME280;5220;43.192;23.284;2024-02-21T10:06:46;97641.81;;;13.27;70.24
10348;BME280;5220;43.192;23.284;2024-02-21T10:09:20;97635.00;;;13.37;72.42
10348;BME280;5220;43.192;23.284;2024-02-21T10:11:48;97635.75;;;13.50;71.56
10348;BME280;5220;43.192;23.284;2024-02-21T10:14:15;97640.00;;;13.40;61.79
10348;BME280;5220;43.192;23.284;2024-02-21T10:16:42;97636.00;;;13.47;61.77
10348;BME280;5220;43.192;23.284;2024-02-21T10:19:16;97641.69;;;13.52;59.88
10348;BME280;5220;43.192;23.284;2024-02-21T10:21:43;97631.97;;;13.54;62.10
10348;BME280;5220;43.192;23.284;2024-02-21T10:24:12;97630.16;;;13.43;65.19
10348;BME280;5220;43.192;23.284;2024-02-21T10:26:38;97631.81;;;13.44;62.44
10348;BME280;5220;43.192;23.284;2024-02-21T10:29:06;97629.22;;;13.21;66.90
10348;BME280;5220;43.192;23.284;2024-02-21T10:31:33;97626.81;;;13.18;70.32
10348;BME280;5220;43.192;23.284;2024-02-21T10:34:00;97630.53;;;13.26;71.19
10348;BME280;5220;43.192;23.284;2024-02-21T10:36:29;97630.34;;;12.57;73.28
10348;BME280;5220;43.192;23.284;2024-02-21T10:38:56;97623.13;;;12.60;79.40
10348;BME280;5220;43.192;23.284;2024-02-21T10:41:24;97624.75;;;12.74;79.11
10348;BME280;5220;43.192;23.284;2024-02-21T10:43:53;97623.38;;;12.45;79.14
10348;BME280;5220;43.192;23.284;2024-02-21T10:46:21;97613.31;;;12.64;81.83
10348;BME280;5220;43.192;23.284;2024-02-21T10:48:55;97621.38;;;12.61;81.14
10348;BME280;5220;43.192;23.284;2024-02-21T10:51:29;97617.84;;;12.85;80.65
10348;BME280;5220;43.192;23.284;2024-02-21T10:54:04;97603.47;;;13.04;81.00
10348;BME280;5220;43.192;23.284;2024-02-21T10:56:38;97600.91;;;13.15;80.57
10348;BME280;5220;43.192;23.284;2024-02-21T10:59:07;97598.09;;;13.18;80.56
10348;BME280;5220;43.192;23.284;2024-02-21T11:01:34;97598.09;;;13.18;82.32
10348;BME280;5220;43.192;23.284;2024-02-21T11:04:03;97598.31;;;13.15;80.56
10348;BME280;5220;43.192;23.284;2024-02-21T11:06:31;97597.38;;;13.16;84.31
10348;BME280;5220;43.192;23.284;2024-02-21T11:09:03;97594.75;;;13.16;82.50
10348;BME280;5220;43.192;23.284;2024-02-21T11:11:33;97601.72;;;12.91;81.17
10348;BME280;5220;43.192;23.284;2024-02-21T11:14:08;97595.16;;;12.86;91.36
10348;BME280;5220;43.192;23.284;2024-02-21T11:16:36;97598.91;;;12.94;93.75
10348;BME280;5220;43.192;23.284;2024-02-21T11:19:08;97589.34;;;12.82;97.42
10348;BME280;5220;43.192;23.284;2024-02-21T11:21:35;97593.50;;;12.85;97.30
10348;BME280;5220;43.192;23.284;2024-02-21T11:24:01;97591.72;;;12.85;95.07
10348;BME280;5220;43.192;23.284;2024-02-21T11:26:29;97589.72;;;12.89;95.00
10348;BME280;5220;43.192;23.284;2024-02-21T11:28:57;97588.97;;;12.63;98.71
10348;BME280;5220;43.192;23.284;2024-02-21T11:31:26;97580.06;;;12.78;100.00
10348;BME280;5220;43.192;23.284;2024-02-21T11:33:53;97573.84;;;12.92;99.72
10348;BME280;5220;43.192;23.284;2024-02-21T11:36:25;97579.88;;;12.69;100.00
10348;BME280;5220;43.192;23.284;2024-02-21T11:38:52;97581.03;;;12.16;100.00
10348;BME280;5220;43.192;23.284;2024-02-21T11:41:19;97590.00;;;12.12;100.00
10348;BME280;5220;43.192;23.284;2024-02-21T11:43:48;97583.75;;;12.14;100.00
10348;BME280;5220;43.192;23.284;2024-02-21T11:46:16;97595.13;;;11.88;100.00
10348;BME280;5220;43.192;23.284;2024-02-21T11:48:44;97595.78;;;11.52;100.00
10348;BME280;5220;43.192;23.284;2024-02-21T11:51:21;97597.16;;;11.45;100.00
10348;BME280;5220;43.192;23.284;2024-02-21T11:53:50;97591.97;;;11.58;100.00
10348;BME280;5220;43.192;23.284;2024-02-21T11:56:17;97589.34;;;11.45;100.00
10348;BME280;5220;43.192;23.284;2024-02-21T11:58:45;97589.50;;;11.29;100.00
10348;BME280;5220;43.192;23.284;2024-02-21T12:01:12;97584.94;;;11.33;100.00
10348;BME280;5220;43.192;23.284;2024-02-21T12:03:39;97571.25;;;10.90;100.00
10348;BME280;5220;43.192;23.284;2024-02-21T12:06:08;97573.63;;;11.07;100.00
10348;BME280;5220;43.192;23.284;2024-02-21T12:08:41;97566.97;;;11.16;100.00
10348;BME280;5220;43.192;23.284;2024-02-21T12:11:18;97553.66;;;11.20;100.00
10348;BME280;5220;43.192;23.284;2024-02-21T12:13:45;97555.75;;;11.28;100.00
10348;BME280;5220;43.192;23.284;2024-02-21T12:16:15;97551.38;;;11.28;100.00
10348;BME280;5220;43.192;23.284;2024-02-21T12:18:43;97551.16;;;11.31;100.00
10348;BME280;5220;43.192;23.284;2024-02-21T12:21:11;97547.88;;;11.03;100.00
10348;BME280;5220;43.192;23.284;2024-02-21T12:23:38;97545.38;;;11.01;100.00
10348;BME280;5220;43.192;23.284;2024-02-21T12:26:04;97542.34;;;10.95;100.00
10348;BME280;5220;43.192;23.284;2024-02-21T12:28:31;97534.25;;;10.72;100.00
10348;BME280;5220;43.192;23.284;2024-02-21T12:30:58;97537.84;;;10.97;100.00
10348;BME280;5220;43.192;23.284;2024-02-21T12:33:25;97545.22;;;11.17;100.00
10348;BME280;5220;43.192;23.284;2024-02-21T12:35:52;97541.78;;;11.16;100.00
10348;BME280;5220;43.192;23.284;2024-02-21T12:38:21;97539.06;;;11.30;100.00
10348;BME280;5220;43.192;23.284;2024-02-21T12:40:48;97540.13;;;11.41;100.00
10348;BME280;5220;43.192;23.284;2024-02-21T12:43:15;97535.34;;;11.47;100.00
10348;BME280;5220;43.192;23.284;2024-02-21T12:45:41;97528.47;;;11.46;100.00
10348;BME280;5220;43.192;23.284;2024-02-21T12:48:08;97532.13;;;11.56;100.00
10348;BME280;5220;43.192;23.284;2024-02-21T12:50:35;97528.03;;;11.65;100.00
10348;BME280;5220;43.192;23.284;2024-02-21T12:53:02;97532.06;;;11.70;100.00
10348;BME280;5220;43.192;23.284;2024-02-21T12:55:30;97537.06;;;11.73;100.00
10348;BME280;5220;43.192;23.284;2024-02-21T12:58:03;97531.75;;;11.75;100.00
10348;BME280;5220;43.192;23.284;2024-02-21T13:00:30;97533.28;;;11.77;100.00